createdAt,value
2023-03-06T00:02:14.502Z,2.41
2023-03-06T00:04:42.826Z,2.43
2023-03-06T00:07:11.722Z,2.44
2023-03-06T00:09:40.244Z,2.49
2023-03-06T00:12:09.041Z,2.56
2023-03-06T00:14:37.854Z,2.61
2023-03-06T00:17:06.315Z,2.62
2023-03-06T00:19:34.903Z,2.63
2023-03-06T00:22:03.470Z,2.64
2023-03-06T00:24:35.464Z,2.65
2023-03-06T00:27:03.910Z,2.65
2023-03-06T00:29:32.493Z,2.67
2023-03-06T00:32:01.537Z,2.67
2023-03-06T00:34:30.183Z,2.66
2023-03-06T00:36:58.651Z,2.71
2023-03-06T00:39:27.340Z,2.71
2023-03-06T00:41:56.027Z,2.73
2023-03-06T00:44:26.550Z,2.73
2023-03-06T00:46:55.036Z,2.75
2023-03-06T00:49:23.516Z,2.74
2023-03-06T00:51:52.094Z,2.75
2023-03-06T00:54:20.684Z,2.75
2023-03-06T00:56:48.954Z,2.72
2023-03-06T00:59:17.656Z,2.70
2023-03-06T01:01:46.396Z,2.70
2023-03-06T01:04:15.343Z,2.69
2023-03-06T01:06:43.796Z,2.68
2023-03-06T01:09:12.397Z,2.66
2023-03-06T01:11:40.965Z,2.64
2023-03-06T01:14:09.850Z,2.62
2023-03-06T01:16:38.348Z,2.61
2023-03-06T01:19:07.121Z,2.59
2023-03-06T01:21:35.704Z,2.57
2023-03-06T01:24:04.386Z,2.54
2023-03-06T01:26:33.689Z,2.49
2023-03-06T01:32:39.970Z,2.49
2023-03-06T01:35:09.288Z,2.42
2023-03-06T01:37:38.187Z,2.41
2023-03-06T01:40:08.886Z,2.42
2023-03-06T01:42:37.442Z,2.41
2023-03-06T01:45:13.054Z,2.39
2023-03-06T01:47:41.622Z,2.38
2023-03-06T01:50:12.014Z,2.36
2023-03-06T01:52:48.442Z,2.33
2023-03-06T01:55:32.252Z,2.31
2023-03-06T01:58:04.016Z,2.28
2023-03-06T02:00:32.810Z,2.24
2023-03-06T02:03:18.688Z,2.23
2023-03-06T02:05:47.577Z,2.21
2023-03-06T02:08:19.062Z,2.20
2023-03-06T02:11:11.704Z,2.20
2023-03-06T02:13:41.384Z,2.18
2023-03-06T02:16:11.097Z,2.18
2023-03-06T02:18:42.337Z,2.24
2023-03-06T02:21:20.551Z,2.28
2023-03-06T02:24:08.726Z,2.31
2023-03-06T02:26:39.534Z,2.33
2023-03-06T02:29:09.546Z,2.35
2023-03-06T02:31:38.155Z,2.35
2023-03-06T02:34:15.508Z,2.35
2023-03-06T02:37:01.030Z,2.32
2023-03-06T02:39:33.857Z,2.29
2023-03-06T02:42:02.570Z,2.28
2023-03-06T02:44:34.525Z,2.27
2023-03-06T02:47:02.915Z,2.27
2023-03-06T02:49:31.391Z,2.26
2023-03-06T02:51:59.789Z,2.25
2023-03-06T02:54:28.296Z,2.25
2023-03-06T02:56:56.838Z,2.26
2023-03-06T02:59:25.537Z,2.26
2023-03-06T03:01:55.137Z,2.26
2023-03-06T03:08:01.822Z,2.25
2023-03-06T03:10:30.724Z,2.22
2023-03-06T03:12:59.298Z,2.21
2023-03-06T03:15:28.075Z,2.17
2023-03-06T03:17:56.352Z,2.16
2023-03-06T03:20:24.857Z,2.13
2023-03-06T03:22:55.676Z,2.15
2023-03-06T03:25:26.318Z,2.20
2023-03-06T03:27:57.878Z,2.21
2023-03-06T03:30:26.861Z,2.20
2023-03-06T03:32:55.228Z,2.19
2023-03-06T03:35:24.135Z,2.16
2023-03-06T03:37:54.833Z,2.16
2023-03-06T03:40:23.367Z,2.18
2023-03-06T03:42:51.926Z,2.18
2023-03-06T03:45:21.016Z,2.16
2023-03-06T03:47:50.236Z,2.11
2023-03-06T03:50:19.485Z,2.08
2023-03-06T03:52:48.094Z,2.05
2023-03-06T03:55:17.190Z,2.03
2023-03-06T03:57:45.466Z,2.01
2023-03-06T04:00:16.797Z,1.99
2023-03-06T04:02:53.002Z,1.94
2023-03-06T04:05:29.694Z,1.92
2023-03-06T04:07:59.367Z,1.85
2023-03-06T04:10:28.145Z,1.83
2023-03-06T04:12:57.853Z,1.75
2023-03-06T04:15:26.882Z,1.69
2023-03-06T04:17:55.325Z,1.62
2023-03-06T04:20:26.366Z,1.55
2023-03-06T04:22:54.815Z,1.47
2023-03-06T04:25:23.963Z,1.49
2023-03-06T04:27:52.946Z,1.45
2023-03-06T04:30:22.175Z,1.49
2023-03-06T04:32:51.128Z,1.55
2023-03-06T04:35:20.091Z,1.58
2023-03-06T04:37:56.513Z,1.63
2023-03-06T04:40:29.456Z,1.67
2023-03-06T04:42:59.660Z,1.68
2023-03-06T04:45:29.962Z,1.67
2023-03-06T04:47:59.367Z,1.68
2023-03-06T04:50:32.643Z,1.72
2023-03-06T04:53:02.121Z,1.73
2023-03-06T04:55:31.841Z,1.71
2023-03-06T04:58:00.945Z,1.69
2023-03-06T05:00:31.795Z,1.69
2023-03-06T05:03:02.796Z,1.65
2023-03-06T05:05:31.798Z,1.65
2023-03-06T05:08:00.276Z,1.63
2023-03-06T05:10:29.488Z,1.61
2023-03-06T05:12:58.566Z,1.63
2023-03-06T05:15:27.350Z,1.66
2023-03-06T05:17:57.088Z,1.63
2023-03-06T05:20:26.666Z,1.63
2023-03-06T05:22:56.180Z,1.61
2023-03-06T05:25:31.221Z,1.59
2023-03-06T05:28:00.108Z,1.62
2023-03-06T05:30:28.990Z,1.63
2023-03-06T05:32:58.105Z,1.64
2023-03-06T05:35:31.741Z,1.68
2023-03-06T05:38:04.109Z,1.75
2023-03-06T05:40:37.887Z,1.83
2023-03-06T05:43:08.815Z,1.88
2023-03-06T05:45:44.859Z,1.93
2023-03-06T05:48:14.496Z,1.97
2023-03-06T05:50:43.967Z,1.99
2023-03-06T05:53:12.785Z,2.00
2023-03-06T05:55:41.871Z,2.02
2023-03-06T05:58:10.757Z,2.04
2023-03-06T06:00:39.298Z,2.05
2023-03-06T06:03:08.415Z,2.08
2023-03-06T06:05:40.756Z,2.12
2023-03-06T06:08:12.148Z,2.15
2023-03-06T06:10:42.168Z,2.17
2023-03-06T06:13:12.028Z,2.19
2023-03-06T06:15:45.356Z,2.22
2023-03-06T06:18:18.988Z,2.25
2023-03-06T06:24:27.589Z,2.35
2023-03-06T06:26:58.583Z,2.38
2023-03-06T06:29:28.836Z,2.41
2023-03-06T06:31:58.083Z,2.44
2023-03-06T06:34:28.515Z,2.49
2023-03-06T06:36:57.413Z,2.54
2023-03-06T06:39:26.388Z,2.56
2023-03-06T06:42:10.985Z,2.61
2023-03-06T06:44:46.413Z,2.65
2023-03-06T06:47:25.341Z,2.64
2023-03-06T06:49:57.776Z,2.68
2023-03-06T06:52:31.725Z,2.76
2023-03-06T06:55:01.740Z,2.83
2023-03-06T06:57:30.632Z,2.89
2023-03-06T07:00:00.316Z,2.99
2023-03-06T07:02:33.452Z,3.07
2023-03-06T07:05:18.723Z,3.18
2023-03-06T07:07:51.490Z,3.26
2023-03-06T07:10:21.269Z,3.30
2023-03-06T07:12:50.467Z,3.36
2023-03-06T07:15:26.297Z,3.45
2023-03-06T07:17:56.247Z,3.50
2023-03-06T07:20:27.611Z,3.55
2023-03-06T07:22:56.283Z,3.62
2023-03-06T07:25:25.520Z,3.74
2023-03-06T07:27:57.060Z,3.82
2023-03-06T07:30:26.334Z,3.85
2023-03-06T07:32:57.597Z,3.98
2023-03-06T07:35:27.986Z,4.16
2023-03-06T07:37:57.617Z,4.27
2023-03-06T07:40:27.413Z,4.29
2023-03-06T07:43:12.872Z,4.29
2023-03-06T07:46:06.254Z,4.46
2023-03-06T07:48:39.363Z,4.48
2023-03-06T07:51:16.870Z,4.51
2023-03-06T07:53:47.698Z,4.51
2023-03-06T07:56:18.014Z,4.57
2023-03-06T07:58:49.533Z,4.74
2023-03-06T08:01:20.924Z,4.84
2023-03-06T08:03:50.627Z,4.86
2023-03-06T08:06:24.403Z,4.97
2023-03-06T08:08:56.436Z,5.05
2023-03-06T08:11:33.792Z,5.12
2023-03-06T08:14:05.330Z,5.24
2023-03-06T08:16:34.515Z,5.23
2023-03-06T08:19:04.650Z,5.26
2023-03-06T08:21:35.915Z,5.33
2023-03-06T08:24:06.744Z,5.41
2023-03-06T08:26:37.077Z,5.56
2023-03-06T08:29:08.800Z,5.56
2023-03-06T08:31:42.438Z,5.57
2023-03-06T08:34:21.561Z,5.62
2023-03-06T08:36:51.862Z,5.69
2023-03-06T08:39:23.937Z,5.80
2023-03-06T08:41:52.425Z,5.80
2023-03-06T08:44:21.091Z,5.91
2023-03-06T08:46:50.196Z,5.93
2023-03-06T08:49:18.981Z,5.79
2023-03-06T08:51:48.954Z,5.73
2023-03-06T08:54:18.801Z,5.69
2023-03-06T08:56:47.493Z,5.74
2023-03-06T08:59:18.122Z,5.73
2023-03-06T09:01:48.083Z,5.71
2023-03-06T09:04:17.242Z,5.80
2023-03-06T09:06:47.144Z,5.83
2023-03-06T09:09:16.255Z,5.82
2023-03-06T09:11:45.435Z,5.78
2023-03-06T09:14:15.103Z,5.81
2023-03-06T09:16:44.143Z,5.83
2023-03-06T09:19:13.847Z,5.84
2023-03-06T09:21:42.527Z,5.88
2023-03-06T09:24:11.139Z,5.90
2023-03-06T09:26:47.056Z,5.91
2023-03-06T09:29:18.236Z,5.93
2023-03-06T09:31:47.635Z,5.96
2023-03-06T09:34:17.047Z,6.03
2023-03-06T09:36:56.468Z,6.10
2023-03-06T09:39:26.791Z,6.16
2023-03-06T09:42:01.456Z,6.25
2023-03-06T09:44:35.301Z,6.29
2023-03-06T09:47:56.353Z,6.31
2023-03-06T09:50:51.832Z,6.34
2023-03-06T09:53:49.869Z,6.40
2023-03-06T09:56:25.945Z,6.53
2023-03-06T09:59:16.342Z,6.65
2023-03-06T10:02:17.340Z,6.71
2023-03-06T10:04:55.894Z,6.73
2023-03-06T10:07:59.100Z,6.74
2023-03-06T10:10:52.150Z,6.80
2023-03-06T10:13:33.681Z,6.92
2023-03-06T10:16:16.819Z,7.01
2023-03-06T10:18:47.329Z,7.00
2023-03-06T10:21:59.561Z,6.99
2023-03-06T10:24:51.258Z,7.12
2023-03-06T10:27:46.706Z,7.19
2023-03-06T10:30:36.164Z,7.23
2023-03-06T10:33:17.423Z,7.39
2023-03-06T10:35:52.769Z,7.52
2023-03-06T10:38:38.435Z,7.60
2023-03-06T10:41:20.036Z,7.60
2023-03-06T10:44:01.735Z,7.62
2023-03-06T10:46:34.685Z,7.61
2023-03-06T10:49:25.582Z,7.66
2023-03-06T10:52:09.980Z,7.60
2023-03-06T10:54:44.782Z,7.63
2023-03-06T10:57:31.094Z,7.73
2023-03-06T11:00:08.873Z,7.82
2023-03-06T11:02:42.537Z,7.82
2023-03-06T11:05:20.314Z,7.76
2023-03-06T11:07:56.916Z,7.67
2023-03-06T11:10:30.028Z,7.60
2023-03-06T11:13:05.223Z,7.46
2023-03-06T11:15:36.426Z,7.38
2023-03-06T11:18:08.441Z,7.35
2023-03-06T11:20:52.357Z,7.31
2023-03-06T11:23:51.862Z,7.32
2023-03-06T11:26:30.478Z,7.43
2023-03-06T11:29:02.078Z,7.51
2023-03-06T11:31:44.779Z,7.51
2023-03-06T11:34:39.135Z,7.49
2023-03-06T11:37:20.623Z,7.41
2023-03-06T11:40:00.478Z,7.36
2023-03-06T11:42:53.730Z,7.36
2023-03-06T11:45:24.580Z,7.34
2023-03-06T11:48:14.908Z,7.36
2023-03-06T11:50:46.339Z,7.33
2023-03-06T11:53:28.461Z,7.36
2023-03-06T11:56:20.556Z,7.28
2023-03-06T11:58:53.041Z,7.28
2023-03-06T12:01:55.300Z,7.33
2023-03-06T12:04:43.234Z,7.31
2023-03-06T12:07:36.845Z,7.33
2023-03-06T12:10:49.062Z,7.38
2023-03-06T12:16:21.801Z,7.52
2023-03-06T12:19:03.810Z,7.58
2023-03-06T12:22:02.838Z,7.60
2023-03-06T12:24:38.141Z,7.74
2023-03-06T12:27:31.400Z,7.82
2023-03-06T12:30:10.407Z,7.84
2023-03-06T12:33:13.688Z,7.87
2023-03-06T12:36:12.013Z,7.96
2023-03-06T12:38:55.213Z,7.94
2023-03-06T12:41:39.554Z,7.94
2023-03-06T12:44:22.405Z,8.02
2023-03-06T12:47:06.097Z,8.03
2023-03-06T12:49:47.354Z,8.06
2023-03-06T12:52:32.030Z,8.06
2023-03-06T12:55:08.685Z,8.17
2023-03-06T12:57:44.679Z,8.13
2023-03-06T13:00:36.118Z,8.16
2023-03-06T13:03:17.697Z,8.12
2023-03-06T13:06:21.117Z,8.15
2023-03-06T13:09:08.693Z,8.13
2023-03-06T13:12:07.850Z,8.16
2023-03-06T13:14:48.762Z,8.24
2023-03-06T13:17:32.032Z,8.24
2023-03-06T13:20:35.295Z,8.32
2023-03-06T13:23:33.476Z,8.36
2023-03-06T13:26:27.754Z,8.38
2023-03-06T13:29:03.502Z,8.32
2023-03-06T13:31:39.748Z,8.29
2023-03-06T13:34:36.794Z,8.16
2023-03-06T13:37:24.449Z,8.07
2023-03-06T13:39:59.432Z,8.06
2023-03-06T13:42:36.483Z,8.05
2023-03-06T13:45:20.863Z,8.04
2023-03-06T13:48:33.615Z,8.07
2023-03-06T13:50:48.996Z,8.12
2023-03-06T13:53:42.591Z,8.16
2023-03-06T13:56:39.274Z,8.10
2023-03-06T13:59:43.797Z,8.12
2023-03-06T14:02:58.809Z,8.10
2023-03-06T14:09:00.329Z,8.15
2023-03-06T14:11:33.371Z,8.12
2023-03-06T14:14:03.242Z,8.07
2023-03-06T14:16:50.291Z,8.03
2023-03-06T14:19:23.195Z,8.01
2023-03-06T14:21:57.862Z,7.94
2023-03-06T14:24:34.896Z,7.89
2023-03-06T14:27:16.926Z,7.86
2023-03-06T14:29:49.040Z,7.85
2023-03-06T14:32:25.622Z,7.80
2023-03-06T14:34:57.951Z,7.75
2023-03-06T14:37:29.462Z,7.73
2023-03-06T14:39:59.328Z,7.70
2023-03-06T14:42:30.735Z,7.67
2023-03-06T14:45:17.276Z,7.60
2023-03-06T14:47:55.064Z,7.55
2023-03-06T14:50:24.610Z,7.50
2023-03-06T14:53:05.370Z,7.47
2023-03-06T14:55:39.849Z,7.43
2023-03-06T14:58:17.144Z,7.43
2023-03-06T15:00:50.662Z,7.44
2023-03-06T15:03:27.457Z,7.41
2023-03-06T15:05:59.012Z,7.39
2023-03-06T15:08:32.301Z,7.37
2023-03-06T15:11:03.875Z,7.33
2023-03-06T15:13:34.752Z,7.27
2023-03-06T15:16:07.378Z,7.23
2023-03-06T15:19:06.655Z,7.19
2023-03-06T15:21:39.166Z,7.15
2023-03-06T15:24:36.829Z,7.07
2023-03-06T15:27:18.361Z,7.00
2023-03-06T15:29:47.805Z,6.96
2023-03-06T15:32:42.753Z,6.92
2023-03-06T15:35:35.755Z,6.87
2023-03-06T15:38:30.244Z,6.82
2023-03-06T15:41:05.236Z,6.76
2023-03-06T15:43:40.813Z,6.71
2023-03-06T15:46:11.452Z,6.70
2023-03-06T15:48:55.106Z,6.65
2023-03-06T15:51:28.124Z,6.60
2023-03-06T15:54:09.932Z,6.56
2023-03-06T15:56:44.296Z,6.51
2023-03-06T15:59:36.121Z,6.44
2023-03-06T16:02:20.210Z,6.30
2023-03-06T16:04:54.174Z,6.20
2023-03-06T16:07:26.351Z,6.14
2023-03-06T16:10:01.326Z,6.08
2023-03-06T16:12:41.759Z,6.03
2023-03-06T16:15:38.659Z,5.95
2023-03-06T16:18:11.562Z,5.84
2023-03-06T16:20:42.188Z,5.73
2023-03-06T16:23:13.980Z,5.61
2023-03-06T16:25:48.644Z,5.47
2023-03-06T16:28:19.156Z,5.38
2023-03-06T16:30:50.231Z,5.28
2023-03-06T16:33:19.774Z,5.18
2023-03-06T16:35:48.452Z,5.07
2023-03-06T16:38:18.456Z,4.98
2023-03-06T16:40:47.438Z,4.88
2023-03-06T16:43:17.008Z,4.77
2023-03-06T16:45:45.849Z,4.66
2023-03-06T16:48:20.356Z,4.54
2023-03-06T16:50:50.909Z,4.44
2023-03-06T16:53:20.840Z,4.33
2023-03-06T16:55:51.213Z,4.24
2023-03-06T16:58:22.429Z,4.16
2023-03-06T17:00:53.025Z,4.05
2023-03-06T17:03:29.734Z,3.94
2023-03-06T17:06:03.036Z,3.83
2023-03-06T17:08:31.866Z,3.72
2023-03-06T17:11:03.153Z,3.63
2023-03-06T17:13:33.446Z,3.53
2023-03-06T17:16:03.809Z,3.42
2023-03-06T17:18:38.414Z,3.33
2023-03-06T17:21:08.736Z,3.24
2023-03-06T17:23:39.557Z,3.17
2023-03-06T17:26:14.810Z,3.12
2023-03-06T17:28:47.158Z,3.06
2023-03-06T17:31:19.161Z,3.00
2023-03-06T17:33:48.620Z,2.91
2023-03-06T17:36:19.682Z,2.84
2023-03-06T17:38:50.426Z,2.79
2023-03-06T17:41:24.867Z,2.75
2023-03-06T17:43:58.849Z,2.69
2023-03-06T17:46:28.785Z,2.63
2023-03-06T17:49:02.165Z,2.56
2023-03-06T17:51:33.886Z,2.51
2023-03-06T17:54:03.395Z,2.47
2023-03-06T17:56:39.008Z,2.41
2023-03-06T17:59:11.166Z,2.35
2023-03-06T18:01:41.325Z,2.30
2023-03-06T18:04:11.494Z,2.24
2023-03-06T18:06:40.827Z,2.18
2023-03-06T18:09:14.515Z,2.13
2023-03-06T18:11:43.519Z,2.06
2023-03-06T18:14:14.613Z,2.01
2023-03-06T18:16:43.898Z,1.94
2023-03-06T18:19:13.084Z,1.89
2023-03-06T18:25:25.524Z,1.87
2023-03-06T18:27:54.939Z,1.80
2023-03-06T18:30:25.566Z,1.74
2023-03-06T18:32:59.858Z,1.70
2023-03-06T18:35:29.308Z,1.67
2023-03-06T18:37:58.050Z,1.64
2023-03-06T18:40:28.496Z,1.59
2023-03-06T18:42:58.373Z,1.54
2023-03-06T18:45:32.600Z,1.49
2023-03-06T18:48:02.538Z,1.43
2023-03-06T18:50:31.985Z,1.37
2023-03-06T18:53:01.032Z,1.33
2023-03-06T18:55:34.059Z,1.30
2023-03-06T18:58:04.414Z,1.26
2023-03-06T19:00:36.123Z,1.22
2023-03-06T19:03:12.420Z,1.16
2023-03-06T19:05:44.138Z,1.12
2023-03-06T19:08:18.885Z,1.09
2023-03-06T19:10:53.563Z,1.07
2023-03-06T19:13:24.520Z,1.02
2023-03-06T19:15:57.106Z,0.99
2023-03-06T19:18:27.598Z,0.97
2023-03-06T19:21:08.948Z,0.94
2023-03-06T19:23:42.006Z,0.89
2023-03-06T19:26:13.272Z,0.85
2023-03-06T19:28:43.137Z,0.83
2023-03-06T19:31:18.458Z,0.80
2023-03-06T19:33:49.589Z,0.78
2023-03-06T19:36:19.963Z,0.74
2023-03-06T19:38:53.986Z,0.73
2023-03-06T19:41:23.282Z,0.69
2023-03-06T19:43:55.509Z,0.67
2023-03-06T19:46:25.983Z,0.64
2023-03-06T19:48:57.448Z,0.62
2023-03-06T19:51:28.473Z,0.58
2023-03-06T19:54:03.906Z,0.57
2023-03-06T19:56:33.837Z,0.56
2023-03-06T19:59:06.871Z,0.57
2023-03-06T20:01:39.426Z,0.57
2023-03-06T20:04:08.446Z,0.56
2023-03-06T20:06:39.147Z,0.56
2023-03-06T20:09:09.073Z,0.59
2023-03-06T20:11:38.530Z,0.62
2023-03-06T20:14:09.158Z,0.62
2023-03-06T20:16:39.786Z,0.62
2023-03-06T20:19:11.836Z,0.63
2023-03-06T20:21:40.745Z,0.63
2023-03-06T20:24:18.098Z,0.61
2023-03-06T20:26:47.764Z,0.58
2023-03-06T20:29:18.720Z,0.56
2023-03-06T20:31:48.185Z,0.55
2023-03-06T20:34:17.505Z,0.53
2023-03-06T20:36:46.924Z,0.50
2023-03-06T20:39:22.163Z,0.48
2023-03-06T20:41:51.215Z,0.51
2023-03-06T20:44:20.697Z,0.54
2023-03-06T20:46:55.871Z,0.54
2023-03-06T20:49:27.250Z,0.55
2023-03-06T20:52:02.139Z,0.55
2023-03-06T20:54:35.102Z,0.56
2023-03-06T20:57:06.288Z,0.54
2023-03-06T20:59:37.778Z,0.55
2023-03-06T21:02:09.990Z,0.57
2023-03-06T21:04:45.814Z,0.56
2023-03-06T21:07:20.064Z,0.52
2023-03-06T21:09:54.084Z,0.49
2023-03-06T21:12:28.207Z,0.46
2023-03-06T21:14:59.339Z,0.44
2023-03-06T21:17:30.280Z,0.45
2023-03-06T21:20:02.654Z,0.45
2023-03-06T21:22:36.748Z,0.46
2023-03-06T21:25:06.217Z,0.47
2023-03-06T21:27:34.743Z,0.49
2023-03-06T21:30:04.546Z,0.52
2023-03-06T21:32:33.767Z,0.55
2023-03-06T21:35:02.229Z,0.60
2023-03-06T21:37:30.929Z,0.66
2023-03-06T21:40:00.371Z,0.71
2023-03-06T21:42:29.828Z,0.73
2023-03-06T21:45:00.462Z,0.74
2023-03-06T21:47:37.967Z,0.73
2023-03-06T21:50:09.646Z,0.71
2023-03-06T21:52:39.416Z,0.69
2023-03-06T21:55:09.400Z,0.67
2023-03-06T21:57:37.734Z,0.64
2023-03-06T22:00:11.511Z,0.63
2023-03-06T22:02:45.118Z,0.61
2023-03-06T22:05:16.877Z,0.57
2023-03-06T22:07:45.704Z,0.52
2023-03-06T22:10:16.707Z,0.48
2023-03-06T22:16:24.487Z,0.45
2023-03-06T22:18:54.967Z,0.41
2023-03-06T22:21:24.705Z,0.40
2023-03-06T22:23:59.673Z,0.40
2023-03-06T22:26:30.306Z,0.39
2023-03-06T22:29:01.030Z,0.41
2023-03-06T22:31:36.316Z,0.42
2023-03-06T22:34:10.262Z,0.46
2023-03-06T22:36:39.716Z,0.50
2023-03-06T22:39:12.826Z,0.51
2023-03-06T22:41:41.581Z,0.51
2023-03-06T22:44:16.106Z,0.51
2023-03-06T22:46:45.129Z,0.53
2023-03-06T22:49:14.989Z,0.53
2023-03-06T22:51:44.008Z,0.55
2023-03-06T22:54:12.482Z,0.59
2023-03-06T22:56:40.702Z,0.63
2023-03-06T22:59:09.399Z,0.72
2023-03-06T23:01:39.177Z,0.85
2023-03-06T23:04:11.479Z,0.94
2023-03-06T23:06:42.190Z,1.00
2023-03-06T23:09:20.990Z,1.03
2023-03-06T23:12:09.383Z,1.05
2023-03-06T23:14:56.276Z,1.05
2023-03-06T23:17:43.302Z,1.07
2023-03-06T23:20:30.591Z,1.09
2023-03-06T23:23:17.804Z,1.16
2023-03-06T23:25:46.082Z,1.18
2023-03-06T23:28:15.486Z,1.16
2023-03-06T23:30:44.518Z,1.16
2023-03-06T23:33:12.955Z,1.19
2023-03-06T23:35:41.687Z,1.22
2023-03-06T23:38:10.024Z,1.22
2023-03-06T23:40:40.042Z,1.19
2023-03-06T23:43:08.643Z,1.17
2023-03-06T23:45:37.104Z,1.12
2023-03-06T23:48:08.134Z,1.09
2023-03-06T23:50:39.954Z,1.08
2023-03-06T23:53:08.550Z,1.05
2023-03-06T23:55:41.981Z,1.01
2023-03-06T23:58:11.484Z,0.97
